createdAt,value
2019-01-18T00:02:25.919Z,83.11
2019-01-18T00:04:57.686Z,82.79
2019-01-18T00:07:29.623Z,83.88
2019-01-18T00:10:01.534Z,82.64
2019-01-18T00:12:34.469Z,81.83
2019-01-18T00:15:08.000Z,81.05
2019-01-18T00:17:39.854Z,81.33
2019-01-18T00:20:12.197Z,81.66
2019-01-18T00:22:44.118Z,82.66
2019-01-18T00:25:16.039Z,82.48
2019-01-18T00:27:47.962Z,82.73
2019-01-18T00:30:19.868Z,83.14
2019-01-18T00:32:51.980Z,83.63
2019-01-18T00:35:23.977Z,83.21
2019-01-18T00:37:55.822Z,83.23
2019-01-18T00:40:27.724Z,82.78
2019-01-18T00:42:59.518Z,82.91
2019-01-18T00:45:31.288Z,81.85
2019-01-18T00:48:03.141Z,82.11
2019-01-18T00:50:34.905Z,82.41
2019-01-18T00:53:06.805Z,82.72
2019-01-18T00:55:38.783Z,82.34
2019-01-18T00:58:10.633Z,82.35
2019-01-18T01:00:42.534Z,83.35
2019-01-18T01:03:14.393Z,82.78
2019-01-18T01:05:46.319Z,83.24
2019-01-18T01:08:18.315Z,83.09
2019-01-18T01:10:50.309Z,83.93
2019-01-18T01:13:22.238Z,83.85
2019-01-18T01:15:54.397Z,82.71
2019-01-18T01:18:26.329Z,82.56
2019-01-18T01:20:58.490Z,82.66
2019-01-18T01:23:30.331Z,82.75
2019-01-18T01:26:02.343Z,82.61
2019-01-18T01:28:34.258Z,82.72
2019-01-18T01:31:06.162Z,83.39
2019-01-18T01:33:38.120Z,83.56
2019-01-18T01:36:10.033Z,83.76
2019-01-18T01:38:41.957Z,83.31
2019-01-18T01:41:13.716Z,83.79
2019-01-18T01:43:45.631Z,83.51
2019-01-18T01:46:17.396Z,83.42
2019-01-18T01:48:49.231Z,83.44
2019-01-18T01:51:21.059Z,83.67
2019-01-18T01:53:52.909Z,84.37
2019-01-18T01:56:24.648Z,85.15
2019-01-18T01:58:56.427Z,85.25
2019-01-18T02:01:28.276Z,85.35
2019-01-18T02:04:00.211Z,85.58
2019-01-18T02:06:32.317Z,85.50
2019-01-18T02:09:04.913Z,86.08
2019-01-18T02:11:37.103Z,86.00
2019-01-18T02:14:09.968Z,85.34
2019-01-18T02:16:42.054Z,85.56
2019-01-18T02:19:13.897Z,84.88
2019-01-18T02:21:45.789Z,85.00
2019-01-18T02:24:17.697Z,84.80
2019-01-18T02:26:49.873Z,84.83
2019-01-18T02:29:21.641Z,86.33
2019-01-18T02:31:53.816Z,86.50
2019-01-18T02:34:25.661Z,85.69
2019-01-18T02:36:57.559Z,85.77
2019-01-18T02:39:29.510Z,85.55
2019-01-18T02:42:01.674Z,85.51
2019-01-18T02:44:33.782Z,85.20
2019-01-18T02:47:05.810Z,85.05
2019-01-18T02:49:37.945Z,85.34
2019-01-18T02:52:10.355Z,86.16
2019-01-18T02:54:42.267Z,85.76
2019-01-18T02:57:14.019Z,84.92
2019-01-18T02:59:45.806Z,84.33
2019-01-18T03:02:17.571Z,84.52
2019-01-18T03:04:49.492Z,84.81
2019-01-18T03:07:21.414Z,84.12
2019-01-18T03:09:53.400Z,84.31
2019-01-18T03:12:25.297Z,83.96
2019-01-18T03:14:57.210Z,84.51
2019-01-18T03:17:29.104Z,83.40
2019-01-18T03:20:01.190Z,83.41
2019-01-18T03:22:33.090Z,83.57
2019-01-18T03:25:06.055Z,84.03
2019-01-18T03:27:37.953Z,83.96
2019-01-18T03:30:18.688Z,83.86
2019-01-18T03:32:47.943Z,83.83
2019-01-18T03:35:22.012Z,83.19
2019-01-18T03:37:54.875Z,84.03
2019-01-18T03:40:26.811Z,83.47
2019-01-18T03:42:58.719Z,83.23
2019-01-18T03:45:30.643Z,82.93
2019-01-18T03:48:02.383Z,82.95
2019-01-18T03:50:34.669Z,82.42
2019-01-18T03:53:06.660Z,82.58
2019-01-18T03:55:38.488Z,82.36
2019-01-18T03:58:10.460Z,82.57
2019-01-18T04:00:42.310Z,82.66
2019-01-18T04:03:14.228Z,83.15
2019-01-18T04:05:46.134Z,82.58
2019-01-18T04:08:18.302Z,83.20
2019-01-18T04:10:50.139Z,82.88
2019-01-18T04:13:22.028Z,82.99
2019-01-18T04:15:53.914Z,82.90
2019-01-18T04:18:25.879Z,82.63
2019-01-18T04:20:57.785Z,84.11
2019-01-18T04:23:29.997Z,83.35
2019-01-18T04:26:02.021Z,83.02
2019-01-18T04:28:33.988Z,83.08
2019-01-18T04:31:06.049Z,82.88
2019-01-18T04:33:38.087Z,83.30
2019-01-18T04:36:10.071Z,83.06
2019-01-18T04:38:42.086Z,83.05
2019-01-18T04:41:14.489Z,83.69
2019-01-18T04:43:46.355Z,83.42
2019-01-18T04:46:18.277Z,83.91
2019-01-18T04:48:50.371Z,83.86
2019-01-18T04:51:22.284Z,83.30
2019-01-18T04:53:54.283Z,83.15
2019-01-18T04:56:26.316Z,83.47
2019-01-18T04:58:58.423Z,83.62
2019-01-18T05:01:30.672Z,83.86
2019-01-18T05:04:02.729Z,83.97
2019-01-18T05:06:34.778Z,84.81
2019-01-18T05:09:08.456Z,86.20
2019-01-18T05:11:40.301Z,86.30
2019-01-18T05:14:12.207Z,87.50
2019-01-18T05:16:44.249Z,86.78
2019-01-18T05:19:16.071Z,86.25
2019-01-18T05:21:47.917Z,86.00
2019-01-18T05:24:19.819Z,86.72
2019-01-18T05:26:51.618Z,86.98
2019-01-18T05:29:23.455Z,87.39
2019-01-18T05:31:55.328Z,88.62
2019-01-18T05:34:27.247Z,88.43
2019-01-18T05:36:59.097Z,88.25
2019-01-18T05:39:31.123Z,89.05
2019-01-18T05:42:02.970Z,88.30
2019-01-18T05:44:34.736Z,88.50
2019-01-18T05:47:06.906Z,88.29
2019-01-18T05:49:38.741Z,88.03
2019-01-18T05:52:10.734Z,86.86
2019-01-18T05:54:42.548Z,87.20
2019-01-18T05:57:14.383Z,86.88
2019-01-18T05:59:46.260Z,87.10
2019-01-18T06:02:18.187Z,86.74
2019-01-18T06:04:51.155Z,87.13
2019-01-18T06:07:23.000Z,86.92
2019-01-18T06:09:54.832Z,86.71
2019-01-18T06:12:26.677Z,86.38
2019-01-18T06:14:58.517Z,86.20
2019-01-18T06:17:30.542Z,86.33
2019-01-18T06:20:06.466Z,86.22
2019-01-18T06:22:38.226Z,86.54
2019-01-18T06:25:10.167Z,86.61
2019-01-18T06:27:42.062Z,86.02
2019-01-18T06:30:16.172Z,85.84
2019-01-18T06:32:49.058Z,86.91
2019-01-18T06:35:31.498Z,85.53
2019-01-18T06:38:03.586Z,85.21
2019-01-18T06:40:35.803Z,85.63
2019-01-18T06:43:07.646Z,85.11
2019-01-18T06:45:39.982Z,85.26
2019-01-18T06:48:13.555Z,85.59
2019-01-18T06:50:45.316Z,85.26
2019-01-18T06:53:17.574Z,85.30
2019-01-18T06:55:49.481Z,85.47
2019-01-18T06:58:21.415Z,85.51
2019-01-18T07:00:53.323Z,86.04
2019-01-18T07:03:25.483Z,87.87
2019-01-18T07:05:57.423Z,88.06
2019-01-18T07:08:29.276Z,88.00
2019-01-18T07:11:01.184Z,88.61
2019-01-18T07:13:33.280Z,88.28
2019-01-18T07:16:05.115Z,87.83
2019-01-18T07:18:37.018Z,87.79
2019-01-18T07:21:10.072Z,87.85
2019-01-18T07:23:42.012Z,88.19
2019-01-18T07:26:14.110Z,87.81
2019-01-18T07:28:46.138Z,87.56
2019-01-18T07:31:17.979Z,87.30
2019-01-18T07:33:50.084Z,86.81
2019-01-18T07:36:21.994Z,87.03
2019-01-18T07:39:00.382Z,86.81
2019-01-18T07:41:27.611Z,86.73
2019-01-18T07:43:59.456Z,85.87
2019-01-18T07:46:31.402Z,86.77
2019-01-18T07:49:03.522Z,86.55
2019-01-18T07:51:35.484Z,86.33
2019-01-18T07:54:07.359Z,86.59
2019-01-18T07:56:39.281Z,86.98
2019-01-18T07:59:11.206Z,85.36
2019-01-18T08:01:43.057Z,84.84
2019-01-18T08:04:14.823Z,84.59
2019-01-18T08:06:46.810Z,85.31
2019-01-18T08:09:18.986Z,85.90
2019-01-18T08:11:51.017Z,84.94
2019-01-18T08:14:22.857Z,85.71
2019-01-18T08:16:54.706Z,86.08
2019-01-18T08:19:26.555Z,85.26
2019-01-18T08:21:58.928Z,85.44
2019-01-18T08:24:30.836Z,86.13
2019-01-18T08:27:03.514Z,86.04
2019-01-18T08:29:35.426Z,86.21
2019-01-18T08:32:07.329Z,86.43
2019-01-18T08:34:39.331Z,87.39
2019-01-18T08:37:11.175Z,88.57
2019-01-18T08:39:43.055Z,87.65
2019-01-18T08:42:14.972Z,87.69
2019-01-18T08:44:46.808Z,86.41
2019-01-18T08:47:18.725Z,86.03
2019-01-18T08:49:50.828Z,86.31
2019-01-18T08:52:22.669Z,85.90
2019-01-18T08:54:54.579Z,86.32
2019-01-18T08:57:26.426Z,86.91
2019-01-18T08:59:58.196Z,88.07
2019-01-18T09:02:30.039Z,86.84
2019-01-18T09:05:01.888Z,87.14
2019-01-18T09:07:33.998Z,87.19
2019-01-18T09:10:08.092Z,86.87
2019-01-18T09:12:41.428Z,86.06
2019-01-18T09:15:13.872Z,85.62
2019-01-18T09:17:45.771Z,86.75
2019-01-18T09:20:20.986Z,86.71
2019-01-18T09:22:52.976Z,86.35
2019-01-18T09:25:24.974Z,87.07
2019-01-18T09:27:56.973Z,87.21
2019-01-18T09:30:33.327Z,87.55
2019-01-18T09:33:08.377Z,87.94
2019-01-18T09:35:41.426Z,88.42
2019-01-18T09:38:17.940Z,87.80
2019-01-18T09:40:49.679Z,87.62
2019-01-18T09:43:21.442Z,87.64
2019-01-18T09:45:53.361Z,88.51
2019-01-18T09:48:25.182Z,87.43
2019-01-18T09:50:57.025Z,86.60
2019-01-18T09:53:29.035Z,87.55
2019-01-18T09:56:00.875Z,85.99
2019-01-18T09:58:32.771Z,86.72
2019-01-18T10:01:04.786Z,86.94
2019-01-18T10:03:36.702Z,86.51
2019-01-18T10:06:09.701Z,85.07
2019-01-18T10:08:41.501Z,84.01
2019-01-18T10:11:13.315Z,84.62
2019-01-18T10:13:45.212Z,84.75
2019-01-18T10:16:17.174Z,83.79
2019-01-18T10:18:49.008Z,85.02
2019-01-18T10:21:20.912Z,84.82
2019-01-18T10:23:52.731Z,83.88
2019-01-18T10:26:24.481Z,82.62
2019-01-18T10:28:56.624Z,81.14
2019-01-18T10:31:28.459Z,80.63
2019-01-18T10:34:00.276Z,81.72
2019-01-18T10:36:32.244Z,80.77
2019-01-18T10:39:06.511Z,79.90
2019-01-18T10:41:38.390Z,79.65
2019-01-18T10:44:10.281Z,79.39
2019-01-18T10:46:42.170Z,79.42
2019-01-18T10:49:13.904Z,77.53
2019-01-18T10:51:45.662Z,77.02
2019-01-18T10:54:17.480Z,77.96
2019-01-18T10:56:49.233Z,79.34
2019-01-18T10:59:20.975Z,79.53
2019-01-18T11:01:52.815Z,79.05
2019-01-18T11:04:24.626Z,76.38
2019-01-18T11:06:56.371Z,76.39
2019-01-18T11:09:28.355Z,77.13
2019-01-18T11:12:00.191Z,78.50
2019-01-18T11:14:32.000Z,80.30
2019-01-18T11:17:04.016Z,80.43
2019-01-18T11:19:35.914Z,79.99
2019-01-18T11:22:07.833Z,79.42
2019-01-18T11:24:39.640Z,80.84
2019-01-18T11:27:11.732Z,78.40
2019-01-18T11:29:43.471Z,76.97
2019-01-18T11:32:15.637Z,76.48
2019-01-18T11:34:47.514Z,74.32
2019-01-18T11:37:19.491Z,70.35
2019-01-18T11:39:51.301Z,71.32
2019-01-18T11:42:23.124Z,71.60
2019-01-18T11:44:54.941Z,70.73
2019-01-18T11:47:28.386Z,71.43
2019-01-18T11:50:00.362Z,71.20
2019-01-18T11:52:32.253Z,71.73
2019-01-18T11:55:04.069Z,71.83
2019-01-18T11:57:35.877Z,72.25
2019-01-18T12:00:12.729Z,73.62
2019-01-18T12:02:44.528Z,70.77
2019-01-18T12:05:17.062Z,71.71
2019-01-18T12:07:49.179Z,70.05
2019-01-18T12:10:24.338Z,70.75
2019-01-18T12:12:56.108Z,71.45
2019-01-18T12:15:28.398Z,73.54
2019-01-18T12:18:00.235Z,71.83
2019-01-18T12:20:35.294Z,73.86
2019-01-18T12:23:07.934Z,69.88
2019-01-18T12:25:39.825Z,68.16
2019-01-18T12:28:11.834Z,66.77
2019-01-18T12:30:43.803Z,68.39
2019-01-18T12:33:15.713Z,64.65
2019-01-18T12:35:47.599Z,68.28
2019-01-18T12:38:19.683Z,64.55
2019-01-18T12:40:51.869Z,62.06
2019-01-18T12:43:23.788Z,58.73
2019-01-18T12:45:55.613Z,59.43
2019-01-18T12:48:27.512Z,58.19
2019-01-18T12:50:59.402Z,59.97
2019-01-18T12:53:31.230Z,60.08
2019-01-18T12:56:02.989Z,61.69
2019-01-18T12:58:34.893Z,61.49
2019-01-18T13:01:06.963Z,62.86
2019-01-18T13:03:38.813Z,64.02
2019-01-18T13:06:10.699Z,62.86
2019-01-18T13:08:42.455Z,64.77
2019-01-18T13:11:15.325Z,64.89
2019-01-18T13:13:47.170Z,64.09
2019-01-18T13:16:36.318Z,63.69
2019-01-18T13:19:20.263Z,64.47
2019-01-18T13:21:52.166Z,63.67
2019-01-18T13:24:23.993Z,61.55
2019-01-18T13:26:55.883Z,59.62
2019-01-18T13:29:27.780Z,61.36
2019-01-18T13:31:59.867Z,59.65
2019-01-18T13:34:31.769Z,58.86
2019-01-18T13:37:03.655Z,60.94
2019-01-18T13:39:35.516Z,59.55
2019-01-18T13:42:07.509Z,59.97
2019-01-18T13:44:43.512Z,59.32
2019-01-18T13:47:18.278Z,57.21
2019-01-18T13:49:46.612Z,57.69
2019-01-18T13:52:18.529Z,58.52
2019-01-18T13:54:50.339Z,57.66
2019-01-18T13:57:22.229Z,60.88
2019-01-18T13:59:54.134Z,63.17
2019-01-18T14:02:25.945Z,62.95
2019-01-18T14:04:57.681Z,61.91
2019-01-18T14:07:29.559Z,61.17
2019-01-18T14:10:01.458Z,60.90
2019-01-18T14:12:33.332Z,59.13
2019-01-18T14:15:05.837Z,57.06
2019-01-18T14:17:37.668Z,57.45
2019-01-18T14:20:13.150Z,56.89
2019-01-18T14:22:45.117Z,58.48
2019-01-18T14:25:17.102Z,56.37
2019-01-18T14:27:49.065Z,56.70
2019-01-18T14:30:25.687Z,58.04
2019-01-18T14:32:57.829Z,55.51
2019-01-18T14:35:29.897Z,55.87
2019-01-18T14:38:02.070Z,55.75
2019-01-18T14:40:33.988Z,54.55
2019-01-18T14:43:05.888Z,55.45
2019-01-18T14:45:40.931Z,56.37
2019-01-18T14:48:12.847Z,57.88
2019-01-18T14:50:44.829Z,61.99
2019-01-18T14:53:16.741Z,63.27
2019-01-18T14:55:48.842Z,63.73
2019-01-18T14:58:24.571Z,63.87
2019-01-18T15:00:54.354Z,64.13
2019-01-18T15:03:26.334Z,64.81
2019-01-18T15:05:58.162Z,64.15
2019-01-18T15:08:30.001Z,64.15
2019-01-18T15:11:01.741Z,63.52
2019-01-18T15:13:33.680Z,61.49
2019-01-18T15:16:06.081Z,59.60
2019-01-18T15:18:38.992Z,61.87
2019-01-18T15:21:10.825Z,65.12
2019-01-18T15:23:42.655Z,66.64
2019-01-18T15:26:18.416Z,68.05
2019-01-18T15:28:48.273Z,67.85
2019-01-18T15:31:20.096Z,65.95
2019-01-18T15:33:51.930Z,65.92
2019-01-18T15:36:23.826Z,65.05
2019-01-18T15:38:56.009Z,65.91
2019-01-18T15:41:27.975Z,65.00
2019-01-18T15:43:59.829Z,65.45
2019-01-18T15:46:31.667Z,65.96
2019-01-18T15:49:03.509Z,66.44
2019-01-18T15:51:35.417Z,67.71
2019-01-18T15:54:07.257Z,68.70
2019-01-18T15:56:39.432Z,68.18
2019-01-18T15:59:11.336Z,68.84
2019-01-18T16:01:43.179Z,70.30
2019-01-18T16:04:14.939Z,68.38
2019-01-18T16:06:46.761Z,69.10
2019-01-18T16:09:18.589Z,70.58
2019-01-18T16:11:50.327Z,71.40
2019-01-18T16:14:22.159Z,71.24
2019-01-18T16:17:00.975Z,71.29
2019-01-18T16:19:32.798Z,72.58
2019-01-18T16:22:04.693Z,71.16
2019-01-18T16:24:36.541Z,71.48
2019-01-18T16:27:09.373Z,72.15
2019-01-18T16:29:41.269Z,73.59
2019-01-18T16:32:13.482Z,73.28
2019-01-18T16:34:45.371Z,74.54
2019-01-18T16:37:17.275Z,74.18
2019-01-18T16:39:49.109Z,74.43
2019-01-18T16:42:22.499Z,75.32
2019-01-18T16:44:54.650Z,74.98
2019-01-18T16:47:26.497Z,75.53
2019-01-18T16:49:58.274Z,75.42
2019-01-18T16:52:30.175Z,74.50
2019-01-18T16:55:02.092Z,72.57
2019-01-18T16:57:33.909Z,72.44
2019-01-18T17:00:14.032Z,72.51
2019-01-18T17:02:46.190Z,73.15
2019-01-18T17:05:18.191Z,74.26
2019-01-18T17:07:49.939Z,74.39
2019-01-18T17:10:22.058Z,74.78
2019-01-18T17:12:54.052Z,75.31
2019-01-18T17:15:25.823Z,75.88
2019-01-18T17:17:57.635Z,76.06
2019-01-18T17:20:32.972Z,76.37
2019-01-18T17:23:04.877Z,76.75
2019-01-18T17:25:37.276Z,77.05
2019-01-18T17:28:10.116Z,77.85
2019-01-18T17:30:42.028Z,77.13
2019-01-18T17:33:14.172Z,77.55
2019-01-18T17:36:32.962Z,78.15
2019-01-18T17:39:39.014Z,78.15
2019-01-18T17:42:58.962Z,78.94
2019-01-18T17:45:59.538Z,79.15
2019-01-18T17:49:12.730Z,78.61
2019-01-18T17:52:32.772Z,78.40
2019-01-18T17:56:00.263Z,78.22
2019-01-18T17:59:41.184Z,78.60
2019-01-18T18:03:10.673Z,78.44
2019-01-18T18:06:30.490Z,78.47
2019-01-18T18:09:42.086Z,77.57
2019-01-18T18:13:01.454Z,77.64
2019-01-18T18:16:15.863Z,77.41
2019-01-18T18:19:43.925Z,77.72
2019-01-18T18:22:56.772Z,78.82
2019-01-18T18:26:23.112Z,79.16
2019-01-18T18:29:51.025Z,79.25
2019-01-18T18:33:11.580Z,79.16
2019-01-18T18:36:18.434Z,79.95
2019-01-18T18:39:34.435Z,79.91
2019-01-18T18:43:18.914Z,79.80
2019-01-18T18:47:07.576Z,79.60
2019-01-18T18:50:35.870Z,79.99
2019-01-18T18:54:14.158Z,80.22
2019-01-18T18:58:01.668Z,80.10
2019-01-18T19:01:40.270Z,79.71
2019-01-18T19:04:53.993Z,79.99
2019-01-18T19:08:29.084Z,80.25
2019-01-18T19:11:33.652Z,80.61
2019-01-18T19:14:48.662Z,80.38
2019-01-18T19:18:10.277Z,80.53
2019-01-18T19:21:48.204Z,80.75
2019-01-18T19:25:08.203Z,80.97
2019-01-18T19:28:43.094Z,81.01
2019-01-18T19:32:33.564Z,81.11
2019-01-18T19:36:08.862Z,80.77
2019-01-18T19:39:28.615Z,78.69
2019-01-18T19:42:42.845Z,78.97
2019-01-18T19:45:52.902Z,77.30
2019-01-18T19:49:30.702Z,77.52
2019-01-18T19:52:44.699Z,77.23
2019-01-18T19:56:00.536Z,77.27
2019-01-18T19:59:14.318Z,77.43
2019-01-18T20:02:54.314Z,78.42
2019-01-18T20:06:12.517Z,78.73
2019-01-18T20:09:40.724Z,79.30
2019-01-18T20:13:14.039Z,79.89
2019-01-18T20:19:53.951Z,80.53
2019-01-18T20:23:06.255Z,80.25
2019-01-18T20:26:03.154Z,80.73
2019-01-18T20:29:35.324Z,79.59
2019-01-18T20:33:09.069Z,79.86
2019-01-18T20:36:10.139Z,79.15
2019-01-18T20:39:43.633Z,79.37
2019-01-18T20:43:03.680Z,79.18
2019-01-18T20:46:22.175Z,77.82
2019-01-18T20:49:53.573Z,77.79
2019-01-18T20:53:06.602Z,77.37
2019-01-18T20:56:19.400Z,77.37
2019-01-18T20:59:27.225Z,77.74
2019-01-18T21:02:52.421Z,77.90
2019-01-18T21:05:37.439Z,78.12
2019-01-18T21:08:37.759Z,78.13
2019-01-18T21:11:34.472Z,78.05
2019-01-18T21:14:59.933Z,77.76
2019-01-18T21:18:44.711Z,77.52
2019-01-18T21:22:07.109Z,77.56
2019-01-18T21:25:29.066Z,77.32
2019-01-18T21:29:13.829Z,77.53
2019-01-18T21:32:10.455Z,77.32
2019-01-18T21:35:26.115Z,77.20
2019-01-18T21:38:45.477Z,76.79
2019-01-18T21:42:17.247Z,76.84
2019-01-18T21:45:36.053Z,76.54
2019-01-18T21:49:05.817Z,76.65
2019-01-18T21:52:24.602Z,77.13
2019-01-18T21:55:30.796Z,76.97
2019-01-18T21:58:42.293Z,76.83
2019-01-18T22:01:59.685Z,76.72
2019-01-18T22:05:33.510Z,77.29
2019-01-18T22:08:45.155Z,77.23
2019-01-18T22:12:22.110Z,77.55
2019-01-18T22:16:20.989Z,77.25
2019-01-18T22:20:22.022Z,76.51
2019-01-18T22:23:14.962Z,76.45
2019-01-18T22:26:41.861Z,77.06
2019-01-18T22:30:06.373Z,77.24
2019-01-18T22:33:30.033Z,77.91
2019-01-18T22:37:00.703Z,77.93
2019-01-18T22:40:29.998Z,77.10
2019-01-18T22:43:31.760Z,78.19
2019-01-18T22:47:05.190Z,78.73
2019-01-18T22:50:00.355Z,78.70
2019-01-18T22:53:25.669Z,79.12
2019-01-18T22:56:38.095Z,79.29
2019-01-18T23:00:00.309Z,79.77
2019-01-18T23:03:17.619Z,80.12
2019-01-18T23:06:43.560Z,80.25
2019-01-18T23:09:52.067Z,79.72
2019-01-18T23:13:34.252Z,79.26
2019-01-18T23:17:05.644Z,79.36
2019-01-18T23:20:29.380Z,79.71
2019-01-18T23:23:57.917Z,79.62
2019-01-18T23:27:21.083Z,79.32
2019-01-18T23:30:27.861Z,79.61
2019-01-18T23:33:26.955Z,79.75
2019-01-18T23:36:44.772Z,79.99
2019-01-18T23:39:53.399Z,79.89
2019-01-18T23:43:00.195Z,80.09
2019-01-18T23:46:14.033Z,80.40
2019-01-18T23:49:12.137Z,80.44
2019-01-18T23:53:05.173Z,80.97
2019-01-18T23:56:41.664Z,81.14
